Radar AviationWeather DUATS TFRs Wunderground Accuweather Weather.com

alt : Radar

TAFs

KDTW 272101Z 2721/2824 22013G20KT P6SM SCT040 BKN100 OVC200
   FM280100 28008KT P6SM SCT040
   FM280800 VRB04KT 5SM BR SCT030
   FM281400 16008KT P6SM BKN040
KCLE 272059Z 2721/2824 20015G25KT P6SM BKN050
     TEMPO 2723/2801 27020G40KT 2SM TSRA OVC035CB
   FM280100 22008KT P6SM VCSH BKN080
   FM280300 27005KT P6SM BKN120
   FM280900 34003KT 6SM BR SKC
   FM281400 03007KT P6SM SKC
KJXN 272000Z 2720/2818 23010KT 6SM -SHRA BKN050
   FM272100 27012G21KT P6SM BKN050
   FM280900 21002KT 4SM BR BKN150
   FM281200 17007KT P6SM SKC
KFWA 271826Z 2718/2818 27016G25KT 3SM TSRA BKN035CB OVC080
   FM271900 25015G23KT 6SM -SHRA VCTS OVC035CB
     TEMPO 2719/2721 4SM -TSRA OVC030CB
   FM272100 26014KT P6SM VCSH BKN030
   FM280000 29007KT P6SM SCT050
   FM280600 VRB02KT 5SM BR SKC
   FM281200 13004KT P6SM FEW050
KFDY 271738Z 2718/2818 22018G28KT P6SM BKN050
     TEMPO 2718/2721 27025G40KT 2SM -TSRA OVC035CB
   FM272100 26010KT P6SM VCSH BKN080
   FM280000 29008KT P6SM SCT120
   FM280900 33003KT 5SM BR SCT015
   FM281300 09007KT P6SM SKC
KTOL 271738Z 2718/2818 23015G25KT P6SM BKN045
     TEMPO 2718/2720 28025G40KT 2SM -TSRA OVC035CB
   FM272000 26012KT P6SM BKN080
   FM280100 30006KT P6SM SCT120
   FM281000 36003KT 5SM BR SKC
   FM281300 09006KT P6SM SKC

METARs

KDUH 272115Z AUTO 23006KT 10SM SCT110 20/17 A3000 RMK AO2
KJXN 272056Z 23010KT 10SM SCT110 21/17 A2998 RMK AO2 RAE09 SLP149 P0002 60028 T02060172 50017
KFWA 272054Z 30015KT 10SM FEW030 FEW050 BKN210 24/19 A3001 RMK AO2 SLP156 CB DSNT E-SE AND SW-W MOV NE 60030 T02440194 50007
KDTW 272053Z 20014KT 10SM SCT025 BKN100 OVC200 23/17 A2999 RMK AO2 RAB04E13B40E52 SLP152 CB DSNT W-NW MOV NE P0000 60000 T02280172 53006
KFDY 272053Z AUTO 30012KT 10SM FEW049 FEW060 23/16 A3001 RMK AO2 PK WND 31032/2019 WSHFT 2002 LTG DSNT W-NE TSB21E36 SLP155 T02330161 53001
KTDZ 272053Z AUTO 24011KT 10SM -RA BKN100 OVC110 19/16 A3001 RMK AO2 RAB04 PRESFR SLP161 P0010 60044 T01940161 52009 TSNO
KTOL 272052Z 22006KT 10SM BKN100 18/17 A3000 RMK AO2 LTG DSNT E-SW TSE36RAE52 SLP157 P0004 60005 T01830172 50006
KCLE 272051Z 19015G24KT 10SM SCT050 SCT060 BKN250 28/16 A3002 RMK AO2 PK WND 21028/2027 SLP160 T02780156 56010

alt : Satellite

alt : TFRs